sensor_id;sensor_type;location;lat;lon;timestamp;pressure;altitude;pressure_sealevel;temperature;humidity
74615;BME280;63121;51.458;-0.110;2023-05-18T00:01:47;102704.28;;;17.65;46.04
74615;BME280;63121;51.458;-0.110;2023-05-18T00:04:12;102705.13;;;17.66;45.79
74615;BME280;63121;51.458;-0.110;2023-05-18T00:06:38;102698.25;;;17.60;46.20
74615;BME280;63121;51.458;-0.110;2023-05-18T00:09:03;102702.66;;;17.51;46.41
74615;BME280;63121;51.458;-0.110;2023-05-18T00:11:29;102699.19;;;17.50;46.31
74615;BME280;63121;51.458;-0.110;2023-05-18T00:13:54;102695.63;;;17.60;46.07
74615;BME280;63121;51.458;-0.110;2023-05-18T00:16:19;102699.22;;;17.45;46.45
74615;BME280;63121;51.458;-0.110;2023-05-18T00:18:45;102700.97;;;17.46;46.19
74615;BME280;63121;51.458;-0.110;2023-05-18T00:21:11;102697.63;;;17.27;46.25
74615;BME280;63121;51.458;-0.110;2023-05-18T00:23:37;102696.50;;;17.58;45.64
74615;BME280;63121;51.458;-0.110;2023-05-18T00:26:03;102700.09;;;17.46;45.96
74615;BME280;63121;51.458;-0.110;2023-05-18T00:28:29;102704.38;;;17.56;45.12
74615;BME280;63121;51.458;-0.110;2023-05-18T00:30:54;102694.75;;;17.60;45.39
74615;BME280;63121;51.458;-0.110;2023-05-18T00:33:21;102695.75;;;17.46;44.63
74615;BME280;63121;51.458;-0.110;2023-05-18T00:35:46;102690.50;;;17.48;44.99
74615;BME280;63121;51.458;-0.110;2023-05-18T00:38:12;102701.78;;;17.53;45.15
74615;BME280;63121;51.458;-0.110;2023-05-18T00:40:40;102696.59;;;17.48;45.03
74615;BME280;63121;51.458;-0.110;2023-05-18T00:43:06;102693.19;;;17.39;44.89
74615;BME280;63121;51.458;-0.110;2023-05-18T00:45:31;102693.13;;;17.46;44.97
74615;BME280;63121;51.458;-0.110;2023-05-18T00:47:57;102685.38;;;17.33;45.27
74615;BME280;63121;51.458;-0.110;2023-05-18T00:50:22;102681.03;;;17.38;45.15
74615;BME280;63121;51.458;-0.110;2023-05-18T00:52:47;102681.16;;;17.19;45.16
74615;BME280;63121;51.458;-0.110;2023-05-18T00:55:13;102682.72;;;17.43;45.19
74615;BME280;63121;51.458;-0.110;2023-05-18T00:57:41;102688.94;;;17.25;45.78
74615;BME280;63121;51.458;-0.110;2023-05-18T01:00:09;102693.31;;;17.22;45.47
74615;BME280;63121;51.458;-0.110;2023-05-18T01:02:38;102689.72;;;17.38;44.95
74615;BME280;63121;51.458;-0.110;2023-05-18T01:05:07;102690.66;;;17.30;45.62
74615;BME280;63121;51.458;-0.110;2023-05-18T01:07:33;102690.66;;;17.30;45.44
74615;BME280;63121;51.458;-0.110;2023-05-18T01:09:58;102699.34;;;17.32;45.44
74615;BME280;63121;51.458;-0.110;2023-05-18T01:12:30;102698.53;;;17.25;45.85
74615;BME280;63121;51.458;-0.110;2023-05-18T01:15:13;102694.16;;;17.24;46.03
74615;BME280;63121;51.458;-0.110;2023-05-18T01:20:48;102693.25;;;17.26;47.71
74615;BME280;63121;51.458;-0.110;2023-05-18T01:23:44;102691.50;;;17.32;47.98
74615;BME280;63121;51.458;-0.110;2023-05-18T01:26:22;102694.16;;;17.25;48.72
74615;BME280;63121;51.458;-0.110;2023-05-18T01:28:48;102688.97;;;17.18;48.70
74615;BME280;63121;51.458;-0.110;2023-05-18T01:31:15;102692.56;;;17.06;49.28
74615;BME280;63121;51.458;-0.110;2023-05-18T01:33:40;102700.38;;;17.06;49.46
74615;BME280;63121;51.458;-0.110;2023-05-18T01:36:06;102697.78;;;17.06;49.17
74615;BME280;63121;51.458;-0.110;2023-05-18T01:38:32;102702.09;;;17.10;49.06
74615;BME280;63121;51.458;-0.110;2023-05-18T01:43:34;102705.56;;;17.09;48.89
74615;BME280;63121;51.458;-0.110;2023-05-18T01:46:25;102707.25;;;17.18;48.57
74615;BME280;63121;51.458;-0.110;2023-05-18T01:48:55;102704.69;;;17.13;49.01
74615;BME280;63121;51.458;-0.110;2023-05-18T01:51:26;102709.03;;;17.13;48.94
74615;BME280;63121;51.458;-0.110;2023-05-18T01:54:00;102715.97;;;17.15;48.32
74615;BME280;63121;51.458;-0.110;2023-05-18T01:56:26;102712.50;;;17.16;48.25
74615;BME280;63121;51.458;-0.110;2023-05-18T01:58:52;102710.88;;;17.01;48.29
74615;BME280;63121;51.458;-0.110;2023-05-18T02:01:18;102707.44;;;16.90;48.48
74615;BME280;63121;51.458;-0.110;2023-05-18T02:03:46;102712.63;;;16.99;48.57
74615;BME280;63121;51.458;-0.110;2023-05-18T02:06:12;102708.28;;;16.91;48.86
74615;BME280;63121;51.458;-0.110;2023-05-18T02:08:37;102709.13;;;16.99;48.63
74615;BME280;63121;51.458;-0.110;2023-05-18T02:11:02;102709.97;;;17.01;48.63
74615;BME280;63121;51.458;-0.110;2023-05-18T02:13:28;102712.56;;;17.05;48.23
74615;BME280;63121;51.458;-0.110;2023-05-18T02:15:53;102711.72;;;17.03;48.13
74615;BME280;63121;51.458;-0.110;2023-05-18T02:18:19;102712.50;;;17.12;48.60
74615;BME280;63121;51.458;-0.110;2023-05-18T02:20:46;102712.53;;;17.07;48.13
74615;BME280;63121;51.458;-0.110;2023-05-18T02:23:13;102710.75;;;17.15;47.96
74615;BME280;63121;51.458;-0.110;2023-05-18T02:25:39;102702.97;;;17.09;48.03
74615;BME280;63121;51.458;-0.110;2023-05-18T02:28:04;102702.94;;;17.14;47.82
74615;BME280;63121;51.458;-0.110;2023-05-18T02:30:30;102703.03;;;17.01;48.31
74615;BME280;63121;51.458;-0.110;2023-05-18T02:32:57;102704.72;;;17.10;48.42
74615;BME280;63121;51.458;-0.110;2023-05-18T02:35:23;102706.56;;;16.90;48.34
74615;BME280;63121;51.458;-0.110;2023-05-18T02:37:48;102700.50;;;16.86;48.94
74615;BME280;63121;51.458;-0.110;2023-05-18T02:40:14;102708.28;;;16.94;48.20
74615;BME280;63121;51.458;-0.110;2023-05-18T02:42:40;102711.75;;;16.96;48.22
74615;BME280;63121;51.458;-0.110;2023-05-18T02:45:07;102710.91;;;16.94;48.03
74615;BME280;63121;51.458;-0.110;2023-05-18T02:47:33;102719.53;;;17.00;48.15
74615;BME280;63121;51.458;-0.110;2023-05-18T02:49:58;102708.31;;;16.89;48.66
74615;BME280;63121;51.458;-0.110;2023-05-18T02:52:23;102708.34;;;16.78;48.27
74615;BME280;63121;51.458;-0.110;2023-05-18T02:54:50;102700.53;;;16.83;48.24
74615;BME280;63121;51.458;-0.110;2023-05-18T02:57:19;102699.63;;;16.85;48.11
74615;BME280;63121;51.458;-0.110;2023-05-18T02:59:44;102709.22;;;16.85;48.41
74615;BME280;63121;51.458;-0.110;2023-05-18T03:02:09;102703.13;;;16.81;48.72
74615;BME280;63121;51.458;-0.110;2023-05-18T03:04:38;102703.13;;;16.78;49.20
74615;BME280;63121;51.458;-0.110;2023-05-18T03:07:03;102710.06;;;16.78;49.51
74615;BME280;63121;51.458;-0.110;2023-05-18T03:09:31;102701.41;;;16.73;49.77
74615;BME280;63121;51.458;-0.110;2023-05-18T03:11:56;102693.59;;;16.74;49.55
74615;BME280;63121;51.458;-0.110;2023-05-18T03:14:22;102696.16;;;16.77;49.43
74615;BME280;63121;51.458;-0.110;2023-05-18T03:16:47;102701.50;;;16.56;49.51
74615;BME280;63121;51.458;-0.110;2023-05-18T03:19:17;102691.97;;;16.45;49.96
74615;BME280;63121;51.458;-0.110;2023-05-18T03:21:43;102694.56;;;16.52;49.97
74615;BME280;63121;51.458;-0.110;2023-05-18T03:24:08;102678.09;;;16.37;49.77
74615;BME280;63121;51.458;-0.110;2023-05-18T03:26:33;102682.41;;;16.49;49.40
74615;BME280;63121;51.458;-0.110;2023-05-18T03:28:59;102677.22;;;16.37;49.81
74615;BME280;63121;51.458;-0.110;2023-05-18T03:31:26;102687.59;;;16.54;49.25
74615;BME280;63121;51.458;-0.110;2023-05-18T03:33:51;102671.94;;;16.54;49.54
74615;BME280;63121;51.458;-0.110;2023-05-18T03:36:17;102684.16;;;16.45;49.79
74615;BME280;63121;51.458;-0.110;2023-05-18T03:38:42;102683.28;;;16.43;49.74
74615;BME280;63121;51.458;-0.110;2023-05-18T03:41:11;102679.84;;;16.34;50.26
74615;BME280;63121;51.458;-0.110;2023-05-18T03:43:36;102676.41;;;16.29;50.26
74615;BME280;63121;51.458;-0.110;2023-05-18T03:46:02;102681.63;;;16.22;50.76
74615;BME280;63121;51.458;-0.110;2023-05-18T03:48:28;102677.25;;;16.32;50.45
74615;BME280;63121;51.458;-0.110;2023-05-18T03:50:53;102679.91;;;16.15;51.24
74615;BME280;63121;51.458;-0.110;2023-05-18T03:53:19;102674.72;;;16.06;51.48
74615;BME280;63121;51.458;-0.110;2023-05-18T03:55:45;102677.31;;;16.09;51.40
74615;BME280;63121;51.458;-0.110;2023-05-18T03:58:11;102679.94;;;16.01;51.38
74615;BME280;63121;51.458;-0.110;2023-05-18T04:00:36;102680.81;;;15.96;51.97
74615;BME280;63121;51.458;-0.110;2023-05-18T04:03:02;102672.16;;;15.91;52.02
74615;BME280;63121;51.458;-0.110;2023-05-18T04:05:28;102666.09;;;15.84;51.85
74615;BME280;63121;51.458;-0.110;2023-05-18T04:07:54;102668.69;;;15.84;52.08
74615;BME280;63121;51.458;-0.110;2023-05-18T04:10:21;102664.34;;;15.78;52.01
74615;BME280;63121;51.458;-0.110;2023-05-18T04:12:47;102667.84;;;15.67;52.49
74615;BME280;63121;51.458;-0.110;2023-05-18T04:15:12;102673.00;;;15.68;52.43
74615;BME280;63121;51.458;-0.110;2023-05-18T04:17:41;102676.53;;;15.52;53.33
74615;BME280;63121;51.458;-0.110;2023-05-18T04:20:12;102675.63;;;15.51;52.83
74615;BME280;63121;51.458;-0.110;2023-05-18T04:22:43;102666.97;;;15.52;52.86
74615;BME280;63121;51.458;-0.110;2023-05-18T04:25:11;102671.28;;;15.49;53.01
74615;BME280;63121;51.458;-0.110;2023-05-18T04:27:37;102668.72;;;15.52;53.19
74615;BME280;63121;51.458;-0.110;2023-05-18T04:30:03;102671.31;;;15.50;53.05
74615;BME280;63121;51.458;-0.110;2023-05-18T04:32:29;102676.50;;;15.47;53.40
74615;BME280;63121;51.458;-0.110;2023-05-18T04:35:01;102675.63;;;15.40;53.81
74615;BME280;63121;51.458;-0.110;2023-05-18T04:37:26;102679.97;;;15.46;53.29
74615;BME280;63121;51.458;-0.110;2023-05-18T04:39:52;102669.56;;;15.44;53.66
74615;BME280;63121;51.458;-0.110;2023-05-18T04:42:18;102681.72;;;15.49;53.28
74615;BME280;63121;51.458;-0.110;2023-05-18T04:44:43;102686.06;;;15.43;53.55
74615;BME280;63121;51.458;-0.110;2023-05-18T04:47:09;102680.84;;;15.51;53.50
74615;BME280;63121;51.458;-0.110;2023-05-18T04:49:34;102684.31;;;15.45;53.36
74615;BME280;63121;51.458;-0.110;2023-05-18T04:52:00;102688.63;;;15.39;53.91
74615;BME280;63121;51.458;-0.110;2023-05-18T04:54:28;102681.69;;;15.42;53.72
74615;BME280;63121;51.458;-0.110;2023-05-18T04:56:56;102693.84;;;15.42;53.59
74615;BME280;63121;51.458;-0.110;2023-05-18T04:59:22;102692.97;;;15.55;52.95
74615;BME280;63121;51.458;-0.110;2023-05-18T05:01:53;102698.19;;;15.46;53.16
74615;BME280;63121;51.458;-0.110;2023-05-18T05:04:21;102687.78;;;15.57;53.45
74615;BME280;63121;51.458;-0.110;2023-05-18T05:06:48;102701.66;;;15.57;53.38
74615;BME280;63121;51.458;-0.110;2023-05-18T05:09:13;102702.53;;;15.55;53.04
74615;BME280;63121;51.458;-0.110;2023-05-18T05:11:39;102702.53;;;15.55;53.44
74615;BME280;63121;51.458;-0.110;2023-05-18T05:14:05;102699.06;;;15.57;53.33
74615;BME280;63121;51.458;-0.110;2023-05-18T05:16:30;102703.41;;;15.61;53.41
74615;BME280;63121;51.458;-0.110;2023-05-18T05:18:56;102694.72;;;15.69;53.26
74615;BME280;63121;51.458;-0.110;2023-05-18T05:21:21;102705.13;;;15.61;53.26
74615;BME280;63121;51.458;-0.110;2023-05-18T05:23:47;102700.78;;;15.61;53.54
74615;BME280;63121;51.458;-0.110;2023-05-18T05:26:12;102704.28;;;15.56;53.46
74615;BME280;63121;51.458;-0.110;2023-05-18T05:28:37;102705.16;;;15.84;53.09
74615;BME280;63121;51.458;-0.110;2023-05-18T05:31:03;102703.41;;;15.77;53.42
74615;BME280;63121;51.458;-0.110;2023-05-18T05:33:28;102706.88;;;15.85;52.74
74615;BME280;63121;51.458;-0.110;2023-05-18T05:35:54;102705.13;;;15.99;52.80
74615;BME280;63121;51.458;-0.110;2023-05-18T05:38:20;102706.84;;;16.08;52.36
74615;BME280;63121;51.458;-0.110;2023-05-18T05:40:45;102712.09;;;15.94;52.38
74615;BME280;63121;51.458;-0.110;2023-05-18T05:43:11;102708.56;;;16.14;52.17
74615;BME280;63121;51.458;-0.110;2023-05-18T05:45:36;102703.31;;;16.23;51.83
74615;BME280;63121;51.458;-0.110;2023-05-18T05:48:02;102708.53;;;16.23;51.87
74615;BME280;63121;51.458;-0.110;2023-05-18T05:50:28;102706.78;;;16.31;51.92
74615;BME280;63121;51.458;-0.110;2023-05-18T05:52:53;102717.22;;;16.33;51.28
74615;BME280;63121;51.458;-0.110;2023-05-18T05:55:19;102713.72;;;16.44;51.33
74615;BME280;63121;51.458;-0.110;2023-05-18T05:57:44;102716.34;;;16.38;50.94
74615;BME280;63121;51.458;-0.110;2023-05-18T06:00:13;102703.25;;;16.48;50.84
74615;BME280;63121;51.458;-0.110;2023-05-18T06:02:39;102708.44;;;16.51;51.11
74615;BME280;63121;51.458;-0.110;2023-05-18T06:05:05;102721.53;;;16.43;50.60
74615;BME280;63121;51.458;-0.110;2023-05-18T06:07:31;102716.25;;;16.57;50.39
74615;BME280;63121;51.458;-0.110;2023-05-18T06:09:57;102725.88;;;16.49;50.07
74615;BME280;63121;51.458;-0.110;2023-05-18T06:12:22;102725.78;;;16.61;50.11
74615;BME280;63121;51.458;-0.110;2023-05-18T06:14:47;102727.47;;;16.83;49.44
74615;BME280;63121;51.458;-0.110;2023-05-18T06:17:13;102731.72;;;17.00;49.06
74615;BME280;63121;51.458;-0.110;2023-05-18T06:19:38;102725.72;;;16.84;49.45
74615;BME280;63121;51.458;-0.110;2023-05-18T06:22:04;102729.06;;;17.07;48.69
74615;BME280;63121;51.458;-0.110;2023-05-18T06:24:29;102729.88;;;17.19;48.52
74615;BME280;63121;51.458;-0.110;2023-05-18T06:26:55;102734.13;;;17.34;47.85
74615;BME280;63121;51.458;-0.110;2023-05-18T06:29:20;102727.88;;;17.56;47.18
74615;BME280;63121;51.458;-0.110;2023-05-18T06:31:46;102725.13;;;17.70;46.48
74615;BME280;63121;51.458;-0.110;2023-05-18T06:34:11;102733.06;;;17.58;45.57
74615;BME280;63121;51.458;-0.110;2023-05-18T06:36:37;102722.41;;;17.85;45.20
74615;BME280;63121;51.458;-0.110;2023-05-18T06:39:03;102729.41;;;17.80;45.67
74615;BME280;63121;51.458;-0.110;2023-05-18T06:41:29;102719.59;;;18.07;44.65
74615;BME280;63121;51.458;-0.110;2023-05-18T06:43:56;102724.78;;;18.13;44.76
74615;BME280;63121;51.458;-0.110;2023-05-18T06:46:24;102733.47;;;18.11;44.15
74615;BME280;63121;51.458;-0.110;2023-05-18T06:48:51;102727.31;;;18.18;43.59
74615;BME280;63121;51.458;-0.110;2023-05-18T06:51:16;102729.81;;;18.28;43.16
74615;BME280;63121;51.458;-0.110;2023-05-18T06:53:44;102729.53;;;18.53;42.01
74615;BME280;63121;51.458;-0.110;2023-05-18T06:56:09;102726.94;;;18.52;42.69
74615;BME280;63121;51.458;-0.110;2023-05-18T06:58:41;102726.59;;;18.78;41.97
74615;BME280;63121;51.458;-0.110;2023-05-18T07:01:08;102731.63;;;18.95;41.93
74615;BME280;63121;51.458;-0.110;2023-05-18T07:03:33;102731.47;;;19.05;41.70
74615;BME280;63121;51.458;-0.110;2023-05-18T07:05:59;102727.81;;;19.17;41.41
74615;BME280;63121;51.458;-0.110;2023-05-18T07:08:25;102727.13;;;19.06;41.27
74615;BME280;63121;51.458;-0.110;2023-05-18T07:10:51;102726.97;;;19.15;40.60
74615;BME280;63121;51.458;-0.110;2023-05-18T07:13:17;102733.81;;;19.25;39.47
74615;BME280;63121;51.458;-0.110;2023-05-18T07:15:43;102731.69;;;19.50;38.70
74615;BME280;63121;51.458;-0.110;2023-05-18T07:18:08;102737.72;;;19.54;38.54
74615;BME280;63121;51.458;-0.110;2023-05-18T07:20:34;102741.13;;;19.59;38.21
74615;BME280;63121;51.458;-0.110;2023-05-18T07:22:59;102743.59;;;19.68;38.02
74615;BME280;63121;51.458;-0.110;2023-05-18T07:25:24;102735.75;;;19.70;37.93
74615;BME280;63121;51.458;-0.110;2023-05-18T07:27:52;102743.75;;;19.59;37.94
74615;BME280;63121;51.458;-0.110;2023-05-18T07:30:18;102738.84;;;19.92;36.33
74615;BME280;63121;51.458;-0.110;2023-05-18T07:32:44;102738.72;;;20.00;36.11
74615;BME280;63121;51.458;-0.110;2023-05-18T07:35:10;102754.63;;;19.35;37.12
74615;BME280;63121;51.458;-0.110;2023-05-18T07:37:35;102744.63;;;19.58;36.83
74615;BME280;63121;51.458;-0.110;2023-05-18T07:40:01;102749.78;;;19.64;36.34
74615;BME280;63121;51.458;-0.110;2023-05-18T07:42:28;102759.13;;;19.81;36.37
74615;BME280;63121;51.458;-0.110;2023-05-18T07:44:54;102759.25;;;19.75;36.46
74615;BME280;63121;51.458;-0.110;2023-05-18T07:47:19;102759.03;;;19.87;36.65
74615;BME280;63121;51.458;-0.110;2023-05-18T07:49:46;102757.13;;;19.97;36.61
74615;BME280;63121;51.458;-0.110;2023-05-18T07:52:11;102760.03;;;19.80;37.50
74615;BME280;63121;51.458;-0.110;2023-05-18T07:54:37;102755.66;;;19.82;37.65
74615;BME280;63121;51.458;-0.110;2023-05-18T07:57:02;102753.06;;;19.79;38.38
74615;BME280;63121;51.458;-0.110;2023-05-18T07:59:28;102759.75;;;19.97;37.61
74615;BME280;63121;51.458;-0.110;2023-05-18T08:01:53;102757.91;;;20.00;37.54
74615;BME280;63121;51.458;-0.110;2023-05-18T08:04:19;102758.81;;;19.99;37.92
74615;BME280;63121;51.458;-0.110;2023-05-18T08:06:45;102759.66;;;20.01;37.70
74615;BME280;63121;51.458;-0.110;2023-05-18T08:09:10;102770.28;;;19.92;37.64
74615;BME280;63121;51.458;-0.110;2023-05-18T08:11:36;102766.41;;;20.13;37.53
74615;BME280;63121;51.458;-0.110;2023-05-18T08:14:02;102764.91;;;20.01;37.15
74615;BME280;63121;51.458;-0.110;2023-05-18T08:16:27;102760.38;;;20.55;36.98
74615;BME280;63121;51.458;-0.110;2023-05-18T08:18:53;102760.84;;;20.30;37.27
74615;BME280;63121;51.458;-0.110;2023-05-18T08:21:18;102762.22;;;20.04;37.95
74615;BME280;63121;51.458;-0.110;2023-05-18T08:23:45;102758.19;;;20.33;37.73
74615;BME280;63121;51.458;-0.110;2023-05-18T08:26:13;102758.59;;;20.60;37.07
74615;BME280;63121;51.458;-0.110;2023-05-18T08:28:39;102757.53;;;20.68;36.78
74615;BME280;63121;51.458;-0.110;2023-05-18T08:31:04;102752.31;;;20.20;37.38
74615;BME280;63121;51.458;-0.110;2023-05-18T08:33:30;102741.84;;;20.64;37.17
74615;BME280;63121;51.458;-0.110;2023-05-18T08:35:56;102729.22;;;20.39;36.76
74615;BME280;63121;51.458;-0.110;2023-05-18T08:38:21;102733.72;;;20.76;36.14
74615;BME280;63121;51.458;-0.110;2023-05-18T08:41:14;102732.72;;;20.83;36.15
74615;BME280;63121;51.458;-0.110;2023-05-18T08:43:37;102731.84;;;20.39;36.26
74615;BME280;63121;51.458;-0.110;2023-05-18T08:46:27;102735.78;;;20.62;36.20
74615;BME280;63121;51.458;-0.110;2023-05-18T08:48:53;102732.13;;;20.69;35.78
74615;BME280;63121;51.458;-0.110;2023-05-18T08:51:20;102741.13;;;21.35;34.60
74615;BME280;63121;51.458;-0.110;2023-05-18T08:53:51;102742.94;;;21.33;35.54
74615;BME280;63121;51.458;-0.110;2023-05-18T08:56:21;102735.91;;;20.98;37.22
74615;BME280;63121;51.458;-0.110;2023-05-18T08:58:50;102735.91;;;20.98;36.53
74615;BME280;63121;51.458;-0.110;2023-05-18T09:01:15;102732.19;;;21.06;36.53
74615;BME280;63121;51.458;-0.110;2023-05-18T09:03:43;102735.59;;;20.71;37.28
74615;BME280;63121;51.458;-0.110;2023-05-18T09:06:09;102734.16;;;21.34;36.31
74615;BME280;63121;51.458;-0.110;2023-05-18T09:08:34;102731.41;;;21.76;35.23
74615;BME280;63121;51.458;-0.110;2023-05-18T09:11:01;102731.00;;;21.90;34.89
74615;BME280;63121;51.458;-0.110;2023-05-18T09:13:27;102727.13;;;22.38;34.54
74615;BME280;63121;51.458;-0.110;2023-05-18T09:15:53;102736.69;;;21.75;35.54
74615;BME280;63121;51.458;-0.110;2023-05-18T09:18:19;102721.97;;;21.67;36.08
74615;BME280;63121;51.458;-0.110;2023-05-18T09:20:44;102724.09;;;22.19;35.38
74615;BME280;63121;51.458;-0.110;2023-05-18T09:23:12;102726.28;;;22.36;34.61
74615;BME280;63121;51.458;-0.110;2023-05-18T09:25:45;102726.09;;;22.43;34.57
74615;BME280;63121;51.458;-0.110;2023-05-18T09:28:11;102726.16;;;22.70;34.37
74615;BME280;63121;51.458;-0.110;2023-05-18T09:30:42;102720.13;;;22.37;34.14
74615;BME280;63121;51.458;-0.110;2023-05-18T09:33:17;102727.03;;;22.08;34.34
74615;BME280;63121;51.458;-0.110;2023-05-18T09:35:44;102730.75;;;22.91;33.35
74615;BME280;63121;51.458;-0.110;2023-05-18T09:38:11;102729.72;;;22.97;33.58
74615;BME280;63121;51.458;-0.110;2023-05-18T09:40:43;102722.97;;;22.88;33.38
74615;BME280;63121;51.458;-0.110;2023-05-18T09:43:08;102720.81;;;22.73;33.50
74615;BME280;63121;51.458;-0.110;2023-05-18T09:45:41;102726.13;;;23.00;33.60
74615;BME280;63121;51.458;-0.110;2023-05-18T09:48:06;102720.38;;;22.87;33.43
74615;BME280;63121;51.458;-0.110;2023-05-18T09:50:32;102714.03;;;23.22;33.21
74615;BME280;63121;51.458;-0.110;2023-05-18T09:52:59;102717.25;;;23.04;33.34
74615;BME280;63121;51.458;-0.110;2023-05-18T09:55:24;102713.75;;;23.57;32.39
74615;BME280;63121;51.458;-0.110;2023-05-18T09:57:50;102712.47;;;23.43;32.52
74615;BME280;63121;51.458;-0.110;2023-05-18T10:00:18;102712.41;;;23.45;32.03
74615;BME280;63121;51.458;-0.110;2023-05-18T10:02:45;102716.56;;;23.79;31.38
74615;BME280;63121;51.458;-0.110;2023-05-18T10:05:20;102719.78;;;23.60;31.00
74615;BME280;63121;51.458;-0.110;2023-05-18T10:07:46;102711.13;;;23.83;30.33
74615;BME280;63121;51.458;-0.110;2023-05-18T10:10:16;102700.03;;;24.22;29.74
74615;BME280;63121;51.458;-0.110;2023-05-18T10:12:42;102702.44;;;24.05;29.78
74615;BME280;63121;51.458;-0.110;2023-05-18T10:15:08;102695.38;;;24.05;28.73
74615;BME280;63121;51.458;-0.110;2023-05-18T10:17:36;102695.50;;;24.02;30.00
74615;BME280;63121;51.458;-0.110;2023-05-18T10:20:03;102705.38;;;24.44;28.88
74615;BME280;63121;51.458;-0.110;2023-05-18T10:22:33;102702.88;;;24.65;28.15
74615;BME280;63121;51.458;-0.110;2023-05-18T10:24:59;102697.56;;;24.41;29.19
74615;BME280;63121;51.458;-0.110;2023-05-18T10:27:26;102698.28;;;24.23;29.60
74615;BME280;63121;51.458;-0.110;2023-05-18T10:29:55;102695.00;;;24.63;29.27
74615;BME280;63121;51.458;-0.110;2023-05-18T10:32:22;102696.94;;;24.82;29.26
74615;BME280;63121;51.458;-0.110;2023-05-18T10:34:51;102699.50;;;24.83;30.05
74615;BME280;63121;51.458;-0.110;2023-05-18T10:37:21;102702.56;;;25.39;29.85
74615;BME280;63121;51.458;-0.110;2023-05-18T10:39:50;102698.75;;;25.66;29.05
74615;BME280;63121;51.458;-0.110;2023-05-18T10:42:16;102697.25;;;25.80;28.16
74615;BME280;63121;51.458;-0.110;2023-05-18T10:44:44;102696.41;;;25.38;28.96
74615;BME280;63121;51.458;-0.110;2023-05-18T10:47:09;102697.75;;;25.04;28.66
74615;BME280;63121;51.458;-0.110;2023-05-18T10:49:36;102692.31;;;25.09;28.23
74615;BME280;63121;51.458;-0.110;2023-05-18T10:52:02;102698.97;;;25.40;27.78
74615;BME280;63121;51.458;-0.110;2023-05-18T10:54:28;102699.84;;;25.61;28.35
74615;BME280;63121;51.458;-0.110;2023-05-18T10:56:54;102702.13;;;25.90;28.05
74615;BME280;63121;51.458;-0.110;2023-05-18T10:59:20;102694.56;;;25.61;28.21
74615;BME280;63121;51.458;-0.110;2023-05-18T11:01:50;102699.31;;;25.52;29.14
74615;BME280;63121;51.458;-0.110;2023-05-18T11:04:24;102701.69;;;25.16;29.26
74615;BME280;63121;51.458;-0.110;2023-05-18T11:06:57;102700.16;;;25.10;29.41
74615;BME280;63121;51.458;-0.110;2023-05-18T11:09:24;102697.78;;;25.26;29.10
74615;BME280;63121;51.458;-0.110;2023-05-18T11:11:57;102685.78;;;25.60;28.68
74615;BME280;63121;51.458;-0.110;2023-05-18T11:14:30;102690.38;;;25.75;28.83
74615;BME280;63121;51.458;-0.110;2023-05-18T11:17:21;102694.06;;;25.93;28.89
74615;BME280;63121;51.458;-0.110;2023-05-18T11:20:10;102699.06;;;25.79;29.45
74615;BME280;63121;51.458;-0.110;2023-05-18T11:28:13;102695.41;;;26.61;28.26
74615;BME280;63121;51.458;-0.110;2023-05-18T11:33:08;102687.31;;;25.45;29.71
74615;BME280;63121;51.458;-0.110;2023-05-18T11:35:33;102684.84;;;26.02;29.20
74615;BME280;63121;51.458;-0.110;2023-05-18T11:38:18;102691.22;;;26.17;29.19
74615;BME280;63121;51.458;-0.110;2023-05-18T11:40:47;102683.44;;;26.71;28.06
74615;BME280;63121;51.458;-0.110;2023-05-18T11:43:19;102689.72;;;27.05;27.69
74615;BME280;63121;51.458;-0.110;2023-05-18T11:48:20;102682.84;;;27.54;26.54
74615;BME280;63121;51.458;-0.110;2023-05-18T11:50:45;102678.22;;;26.31;28.47
74615;BME280;63121;51.458;-0.110;2023-05-18T11:53:14;102670.63;;;26.98;27.83
74615;BME280;63121;51.458;-0.110;2023-05-18T11:55:41;102674.91;;;26.26;28.89
74615;BME280;63121;51.458;-0.110;2023-05-18T11:58:07;102675.22;;;26.58;28.76
74615;BME280;63121;51.458;-0.110;2023-05-18T12:00:35;102674.97;;;26.63;28.42
74615;BME280;63121;51.458;-0.110;2023-05-18T12:03:00;102670.38;;;26.47;28.39
74615;BME280;63121;51.458;-0.110;2023-05-18T12:05:30;102669.59;;;26.26;28.92
74615;BME280;63121;51.458;-0.110;2023-05-18T12:07:56;102669.22;;;27.08;28.31
74615;BME280;63121;51.458;-0.110;2023-05-18T12:10:22;102655.91;;;26.92;28.57
74615;BME280;63121;51.458;-0.110;2023-05-18T12:12:50;102653.25;;;27.45;28.32
74615;BME280;63121;51.458;-0.110;2023-05-18T12:15:20;102654.03;;;27.97;27.18
74615;BME280;63121;51.458;-0.110;2023-05-18T12:17:48;102656.00;;;27.26;28.26
74615;BME280;63121;51.458;-0.110;2023-05-18T12:20:15;102657.66;;;27.46;27.60
74615;BME280;63121;51.458;-0.110;2023-05-18T12:22:42;102652.84;;;27.36;27.50
74615;BME280;63121;51.458;-0.110;2023-05-18T12:25:09;102649.34;;;27.69;27.18
74615;BME280;63121;51.458;-0.110;2023-05-18T12:27:38;102644.88;;;27.36;27.17
74615;BME280;63121;51.458;-0.110;2023-05-18T12:30:26;102640.47;;;27.53;27.49
74615;BME280;63121;51.458;-0.110;2023-05-18T12:32:59;102647.00;;;26.38;28.85
74615;BME280;63121;51.458;-0.110;2023-05-18T12:35:27;102643.88;;;27.03;28.41
74615;BME280;63121;51.458;-0.110;2023-05-18T12:37:54;102636.97;;;27.52;27.87
74615;BME280;63121;51.458;-0.110;2023-05-18T12:40:20;102636.47;;;27.62;27.66
74615;BME280;63121;51.458;-0.110;2023-05-18T12:42:53;102629.25;;;27.48;27.51
74615;BME280;63121;51.458;-0.110;2023-05-18T12:45:22;102633.34;;;28.04;26.90
74615;BME280;63121;51.458;-0.110;2023-05-18T12:47:48;102631.50;;;27.21;27.80
74615;BME280;63121;51.458;-0.110;2023-05-18T12:50:18;102636.50;;;27.44;27.30
74615;BME280;63121;51.458;-0.110;2023-05-18T12:52:44;102624.34;;;28.07;26.41
74615;BME280;63121;51.458;-0.110;2023-05-18T12:55:17;102622.88;;;27.68;27.37
74615;BME280;63121;51.458;-0.110;2023-05-18T12:57:45;102617.41;;;28.04;27.18